Pagrindinis puslapis
METAR-TAF:

METAR-TAF

Oro uostai :

Longjyrbienas, Norvegija

platuma: 78-15N, ilguma: 015-28E, Aukštis: 2 m

Dabartinis oras

Ataskaita buvo paskelbta 24 minutes, ne 09:50 UTC
Vėjas 9 kt iš Rytų/Pietryčių
Temperatūra -13°C
Drėgmė 85%
Slėgis 987 hPa
Matomumas 10 km arba daugiau
Mažai debesys ne aukštis 1000 ft

METAR: ENSB 200950Z 11009KT 9999 FEW010 M13/M15 Q0987 NOSIG RMK WIND 1400FT 06006KT

Laikas: 11:14 (10:14 UTC)

Prognozė

Prognozė galioja nuo 20 metu 06 UTC su 21 metu 06 UTC
Vėjas 5 kt iš Pietų
Matomumas 10 km arba daugiau
Išsisklaidę debesys ne aukštis 1500 ft
Laikinai
nuo 20 metu 06 UTC su 20 metu 09 UTC
Su prošvaistėmis ne aukštis 1400 ft
Tapsmas
nuo 20 metu 13 UTC su 20 metu 15 UTC
Vėjas 15 kt iš Rytų/Pietryčių

TAF: ENSB 2006/2106 18005KT 9999 SCT015 TEMPO 2006/2009 BKN014 BECMG 2013/2015 12015KT

Orai ataskaitas ir orų prognozės (METAR, TAF).

turimą stotys yra geltonos ir raudonos taškus žemėlapyje.

Perkelti pele per norėdami pamatyti stoties vardą.

Tada spustelėkite, norėdami matyti oro stebėjimo ir prognozės.

Norėdami pakeisti žemėlapį: spustelėkite ant žalios mygtukų su juodo kryžiaus žemyn,; žalią mygtuką su brūkšneliu, jei norite nutolinti; arba žalių rodyklių gretimoms žemėlapius.


METAR-TAF: